Latest Weather Observations for Coober Pedy Airport

IDS60801

Issued at 2:01 pm CST Wednesday 29 July 2015 (issued every 30 minutes, with the page automatically refreshed every 10 minutes)

About weather observations | Map of weather stations | Latest weather observations for SA | Other Formats
Station Details ID: 016090 Name: COOBER PEDY AIRPORT Lat: -29.03 Lon: 134.72 Height: 225.0 m
Data from the previous 72 hours. | See also: Recent months at Coober Pedy Airport
Date/Time
CST
Temp
°C
App
Temp
°C
Dew
Point
Rel
Hum
%
Delta-T
°C
Wind Press
QNH
hPa
Press
MSL
hPa
Rain
since 9 am
mm
Dir
 
Spd
km/h
Gust
km/h
Spd
kts
Gust
kts
29/02:00pm 16.2 7.8 -2.3 28 7.6 NNE 32 43 17 23 1026.3 1026.4 0.0
29/01:30pm 15.2 6.7 -1.8 31 7.0 NNE 33 43 18 23 1026.5 1026.6 0.0
29/01:00pm 14.8 5.9 -1.7 32 6.8 NNE 35 44 19 24 1027.4 1027.4 0.0
29/12:30pm 14.3 5.8 -1.7 33 6.5 NNE 33 41 18 22 1028.6 1028.7 0.0
29/12:00pm 13.8 5.9 -1.4 35 6.2 NNE 30 39 16 21 1029.6 1029.7 0.0
29/11:30am 13.3 4.9 -1.4 36 5.9 NNE 33 41 18 22 1030.1 1030.2 0.0
29/11:00am 12.6 5.9 -1.0 39 5.6 N 24 32 13 17 1031.0 1031.1 0.0
29/10:30am 10.4 3.7 -1.0 45 4.5 NNE 24 30 13 16 1031.2 1031.3 0.0
29/10:00am 10.0 1.7 -1.4 45 4.5 NNE 32 39 17 21 1030.6 1030.7 0.0
29/09:30am 9.4 3.5 -1.0 48 4.1 NNE 20 28 11 15 1030.8 1030.9 0.0
29/09:00am 7.6 1.2 -1.4 53 3.4 NE 22 28 12 15 1030.4 1030.5 0.0
29/08:30am 6.1 0.3 -1.5 58 2.8 NNE 19 20 10 11 1030.7 1030.8 0.0
29/08:00am 6.1 0.3 -1.5 58 2.9 NE 19 24 10 13 1030.6 1030.7 0.0
29/07:30am 4.4 -2.0 -2.0 63 2.3 NE 22 26 12 14 1029.9 1030.0 0.0
29/07:00am 4.0 -2.1 -2.4 63 2.3 NE 20 22 11 12 1030.3 1030.4 0.0
29/06:30am 4.9 -0.6 -2.2 60 2.6 NE 17 19 9 10 1030.3 1030.4 0.0
29/06:00am 5.9 0.1 -1.7 58 2.8 NE 19 20 10 11 1029.6 1029.7 0.0
29/05:30am 4.3 -1.2 -2.3 62 2.4 NE 17 20 9 11 1029.7 1029.8 0.0
29/05:00am 4.2 -1.4 -2.6 61 2.4 NE 17 17 9 9 1030.1 1030.2 0.0
29/04:30am 5.3 0.6 -2.0 59 2.7 NNE 13 15 7 8 1030.0 1030.1 0.0
29/04:00am 6.4 0.6 -1.7 56 3.0 NE 19 24 10 13 1029.5 1029.6 0.0
29/03:30am 6.3 0.3 -1.8 56 3.0 NE 20 24 11 13 1029.8 1029.9 0.0
29/03:00am 7.2 0.4 -1.7 53 3.3 NE 24 28 13 15 1030.0 1030.1 0.0
29/02:30am 7.6 0.1 -1.6 52 3.5 NE 28 35 15 19 1029.7 1029.8 0.0
29/02:00am 8.0 0.1 -1.5 51 3.7 NE 30 35 16 19 1029.7 1029.8 0.0
29/01:30am 8.3 0.8 -1.5 50 3.7 NE 28 33 15 18 1030.4 1030.5 0.0
29/01:00am 8.1 1.3 -1.7 50 3.8 NE 24 32 13 17 1030.5 1030.6 0.0
29/12:30am 8.0 0.0 -2.0 49 3.8 NE 30 35 16 19 1030.5 1030.6 0.0
29/12:00am 8.4 0.9 -1.7 49 3.8 NE 28 35 15 19 1030.9 1031.0 0.0
 
Date/Time
CST
Temp
°C
App
Temp
°C
Dew
Point
Rel
Hum
%
Delta-T
°C
Wind Press
QNH
hPa
Press
MSL
hPa
Rain
since 9 am
mm
Dir
 
Spd
km/h
Gust
km/h
Spd
kts
Gust
kts
28/11:30pm 8.2 0.6 -1.9 49 3.8 NE 28 35 15 19 1031.4 1031.4 0.0
28/11:00pm 8.7 1.9 -1.7 48 4.0 ENE 24 32 13 17 1032.3 1032.4 0.0
28/10:30pm 9.3 1.4 -1.7 46 4.2 ENE 30 37 16 20 1032.1 1032.2 0.0
28/10:00pm 9.2 2.7 -2.1 45 4.3 ENE 22 26 12 14 1032.3 1032.4 0.0
28/09:30pm 9.9 2.7 -2.4 42 4.7 ENE 26 32 14 17 1031.7 1031.8 0.0
28/09:00pm 10.0 3.5 -2.3 42 4.7 ENE 22 28 12 15 1031.9 1032.0 0.0
28/08:30pm 10.0 4.5 -2.3 42 4.7 ENE 17 20 9 11 1032.3 1032.4 0.0
28/08:00pm 10.5 5.0 -2.2 41 4.9 NE 17 19 9 10 1032.3 1032.4 0.0
28/07:30pm 11.0 5.9 -2.1 40 5.1 NE 15 17 8 9 1032.1 1032.2 0.0
28/07:00pm 11.6 6.1 -1.9 39 5.3 NE 17 19 9 10 1031.7 1031.8 0.0
28/06:30pm 12.1 7.0 -1.8 38 5.5 ENE 15 19 8 10 1031.8 1031.9 0.0
28/06:00pm 13.6 8.5 -1.6 35 6.1 ENE 15 17 8 9 1032.1 1032.2 0.0
28/05:30pm 14.6 9.2 -1.5 33 6.6 ENE 17 20 9 11 1032.0 1032.1 0.0
28/05:00pm 15.4 9.6 -1.6 31 7.0 ENE 19 24 10 13 1031.9 1032.0 0.0
28/04:30pm 15.7 9.9 -1.4 31 7.1 NE 19 26 10 14 1031.8 1031.9 0.0
28/04:00pm 15.9 10.8 -1.6 30 7.3 NE 15 22 8 12 1032.0 1032.1 0.0
28/03:30pm 16.5 10.6 -1.1 30 7.4 NE 20 28 11 15 1031.8 1031.9 0.0
28/03:00pm 16.2 10.3 -0.9 31 7.2 NE 20 28 11 15 1031.9 1032.0 0.0
28/02:30pm 15.8 10.0 -0.4 33 6.9 NNE 20 30 11 16 1032.0 1032.1 0.0
28/02:00pm 15.7 9.5 -0.1 34 6.8 NNE 22 32 12 17 1032.6 1032.7 0.0
28/01:30pm 14.9 8.0 0.0 36 6.3 NE 26 43 14 23 1032.9 1033.0 0.0
28/01:00pm 15.2 7.9 0.2 36 6.5 NE 28 39 15 21 1033.2 1033.3 0.0
28/12:30pm 14.4 7.2 0.6 39 5.9 NE 28 39 15 21 1033.9 1034.0 0.0
28/12:00pm 13.8 5.8 0.5 40 5.6 NE 32 39 17 21 1034.6 1034.7 0.0
28/11:30am 13.3 5.7 0.7 42 5.3 NE 30 35 16 19 1035.2 1035.3 0.0
28/11:00am 12.2 5.1 1.2 47 4.7 NE 28 35 15 19 1035.8 1036.0 0.0
28/10:30am 11.4 4.3 1.6 51 4.1 ENE 28 33 15 18 1036.1 1036.2 0.0
28/10:00am 10.1 3.8 1.5 55 3.6 ENE 24 28 13 15 1036.5 1036.6 0.0
28/09:30am 9.0 2.7 1.4 59 3.1 E 24 28 13 15 1036.8 1036.9 0.0
28/09:00am 8.3 2.4 1.7 63 2.7 E 22 28 12 15 1036.7 1036.8 0.0
28/08:30am 6.8 2.2 1.5 69 2.1 ESE 15 20 8 11 1036.9 1037.0 0.0
28/08:00am 4.4 -0.8 0.4 75 1.5 ESE 17 19 9 10 1036.4 1036.5 0.0
28/07:30am 3.2 -1.7 -0.3 78 1.3 ESE 15 17 8 9 1036.6 1036.7 0.0
28/07:00am 3.2 -1.7 -0.3 78 1.3 SE 15 15 8 8 1036.7 1036.8 0.0
28/06:30am 3.4 -1.5 -0.4 76 1.4 SE 15 15 8 8 1036.4 1036.5 0.0
28/06:00am 3.4 -0.7 -0.4 76 1.4 SE 11 13 6 7 1036.2 1036.3 0.0
28/05:30am 4.4 -0.5 -0.2 72 1.7 ESE 15 17 8 9 1035.0 1035.1 0.0
28/05:00am 4.9 -0.7 -0.1 70 1.9 E 19 20 10 11 1034.3 1034.4 0.0
28/04:30am 3.4 -1.1 -0.6 75 1.5 ESE 13 15 7 8 1034.2 1034.3 0.0
28/04:00am 3.9 -1.0 -0.5 73 1.7 ESE 15 15 8 8 1034.2 1034.3 0.0
28/03:30am 4.7 -0.1 -0.1 71 1.8 ESE 15 17 8 9 1034.1 1034.2 0.0
28/03:00am 5.4 0.2 0.2 69 2.0 E 17 19 9 10 1034.1 1034.2 0.0
28/02:30am 5.1 0.3 0.1 70 1.9 ESE 15 17 8 9 1034.4 1034.5 0.0
28/02:00am 5.6 0.4 0.4 69 2.0 ESE 17 19 9 10 1034.9 1035.0 0.0
28/01:30am 5.6 0.8 0.2 68 2.1 ESE 15 17 8 9 1035.2 1035.3 0.0
28/01:00am 5.9 1.5 0.5 68 2.1 ESE 13 15 7 8 1035.3 1035.5 0.0
28/12:30am 6.2 1.4 0.5 67 2.2 ESE 15 17 8 9 1035.5 1035.7 0.0
28/12:00am 6.7 2.0 0.8 66 2.3 SE 15 17 8 9 1035.7 1035.9 0.0
 
Date/Time
CST
Temp
°C
App
Temp
°C
Dew
Point
Rel
Hum
%
Delta-T
°C
Wind Press
QNH
hPa
Press
MSL
hPa
Rain
since 9 am
mm
Dir
 
Spd
km/h
Gust
km/h
Spd
kts
Gust
kts
27/11:30pm 7.1 2.7 0.5 63 2.6 ESE 13 15 7 8 1035.6 1035.8 0.0
27/11:00pm 7.5 3.2 0.9 63 2.7 ESE 13 15 7 8 1035.7 1035.9 0.0
27/10:30pm 7.9 3.6 1.1 62 2.7 ESE 13 15 7 8 1035.6 1035.8 0.0
27/10:00pm 7.9 3.6 1.1 62 2.8 SE 13 15 7 8 1035.4 1035.6 0.0
27/09:30pm 8.4 4.1 1.1 60 3.0 SE 13 15 7 8 1035.3 1035.5 0.0
27/09:00pm 8.9 4.6 1.1 58 3.2 SE 13 15 7 8 1035.3 1035.5 0.0
27/08:30pm 9.4 5.1 1.3 57 3.3 SE 13 15 7 8 1035.2 1035.3 0.0
27/08:00pm 9.8 5.9 1.2 55 3.6 SE 11 13 6 7 1035.1 1035.2 0.0
27/07:30pm 11.1 6.9 1.6 52 4.0 SE 13 15 7 8 1034.9 1035.0 0.0
27/07:00pm 11.8 7.2 1.7 50 4.4 SE 15 15 8 8 1034.3 1034.4 0.0
27/06:30pm 12.6 8.4 1.6 47 4.7 SE 13 15 7 8 1034.1 1034.2 0.0
27/06:00pm 13.6 9.0 1.3 43 5.3 SE 15 22 8 12 1034.0 1034.1 0.0
27/05:30pm 14.7 10.1 1.6 41 5.7 SSE 15 20 8 11 1033.9 1034.0 0.0
27/05:00pm 15.1 10.1 1.3 39 6.1 SE 17 22 9 12 1033.6 1033.7 0.0
27/04:30pm 15.2 10.6 1.4 39 6.0 SSE 15 20 8 11 1033.3 1033.4 0.0
27/04:00pm 14.8 9.8 1.3 40 5.9 SSE 17 24 9 13 1033.1 1033.2 0.0
27/03:30pm 14.9 10.7 1.8 41 5.8 SE 13 22 7 12 1033.2 1033.3 0.0
27/03:00pm 15.2 11.5 2.1 41 5.8 SE 11 24 6 13 1033.0 1033.1 0.0
27/02:30pm 14.7 11.0 2.3 43 5.5 SE 11 22 6 12 1033.2 1033.3 0.0
27/02:00pm 14.4 10.3 2.0 43 5.5 ESE 13 20 7 11 1033.4 1033.5 0.0
27/01:30pm 13.8 9.7 2.4 46 5.0 SE 13 20 7 11 1033.7 1033.8 0.0
27/01:00pm 13.3 9.3 3.1 50 4.6 ESE 13 20 7 11 1034.1 1034.2 0.0
27/12:30pm 12.7 8.7 3.1 52 4.3 SSE 13 20 7 11 1034.7 1034.8 0.0
27/12:00pm 12.9 9.4 3.3 52 4.3 E 11 17 6 9 1035.4 1035.6 0.0
27/11:30am 12.8 8.9 3.5 53 4.2 SE 13 17 7 9 1035.8 1036.0 0.0
27/11:00am 12.6 9.0 4.8 59 3.6 ESE 13 19 7 10 1036.2 1036.3 0.0
27/10:30am 12.0 7.7 5.4 64 3.1 SE 17 22 9 12 1036.6 1036.7 0.0
27/10:00am 11.3 7.1 5.8 69 2.6 SE 17 20 9 11 1036.7 1036.8 0.0
27/09:30am 10.0 5.9 6.0 76 1.8 SSE 17 20 9 11 1036.5 1036.6 0.0
27/09:00am 9.2 6.6 5.9 80 1.5 SSE 9 20 5 11 1036.1 1036.2 0.0
27/08:30am 8.4 6.1 5.9 84 1.1 SSE 7 9 4 5 1035.6 1035.8 0.0
27/08:00am 7.7 5.0 5.8 88 0.9 SSW 9 11 5 6 1035.3 1035.5 0.0
27/07:30am 7.4 4.8 5.9 90 0.7 SSW 9 13 5 7 1035.1 1035.2 0.0
27/07:00am 6.7 3.9 5.2 90 0.7 SSW 9 9 5 5 1034.6 1034.7 0.0
27/06:30am 6.6 3.3 4.6 87 0.9 SSW 11 17 6 9 1034.5 1034.6 0.0
27/06:00am 7.7 5.3 5.2 84 1.1 S 7 9 4 5 1033.8 1033.9 0.0
27/05:30am 8.9 5.5 5.8 81 1.4 SSE 13 17 7 9 1033.6 1033.7 0.0
27/05:00am 9.1 5.7 6.0 81 1.4 SSE 13 15 7 8 1033.3 1033.4 0.0
27/04:30am 9.2 5.4 5.9 80 1.5 S 15 19 8 10 1033.4 1033.5 0.0
27/04:00am 9.5 5.4 6.0 79 1.6 SSE 17 20 9 11 1033.1 1033.2 0.0
27/03:30am 9.7 5.0 5.9 77 1.8 S 20 28 11 15 1033.0 1033.1 0.0
27/03:00am 9.9 5.1 5.7 75 1.9 S 20 28 11 15 1032.8 1032.9 0.0
27/02:30am 10.0 5.8 5.6 74 2.0 S 17 19 9 10 1032.7 1032.8 0.0
27/02:00am 9.9 5.6 5.3 73 2.1 S 17 20 9 11 1032.6 1032.7 0.0
27/01:30am 10.1 5.4 5.1 71 2.3 S 19 22 10 12 1032.3 1032.4 0.0
27/01:00am 10.6 6.6 4.9 68 2.6 S 15 20 8 11 1032.2 1032.3 0.0
27/12:30am 10.9 5.9 4.8 66 2.8 S 20 24 11 13 1032.1 1032.2 0.0
27/12:00am 11.3 6.5 4.5 63 3.1 S 19 24 10 13 1032.0 1032.1 0.0
 
Date/Time
CST
Temp
°C
App
Temp
°C
Dew
Point
Rel
Hum
%
Delta-T
°C
Wind Press
QNH
hPa
Press
MSL
hPa
Rain
since 9 am
mm
Dir
 
Spd
km/h
Gust
km/h
Spd
kts
Gust
kts
26/11:30pm 12.4 7.2 3.4 54 4.0 S 20 26 11 14 1031.8 1031.9 0.0
26/11:00pm 12.8 8.2 3.7 54 4.1 S 17 20 9 11 1031.6 1031.7 0.0
26/10:30pm 13.0 8.9 4.2 55 4.0 S 15 17 8 9 1031.4 1031.4 0.0
26/10:00pm 13.2 8.8 4.6 56 4.0 SSE 17 19 9 10 1031.4 1031.4 0.0
26/09:30pm 12.8 9.5 6.4 65 3.1 S 13 17 7 9 1031.1 1031.2 0.0
26/09:00pm 12.1 9.2 6.4 68 2.7 SW 11 13 6 7 1030.6 1030.7 0.0
26/08:30pm 11.5 8.5 6.0 69 2.6 WSW 11 11 6 6 1030.2 1030.3 0.0
26/08:00pm 12.2 9.2 5.8 65 3.0 WSW 11 13 6 7 1029.8 1029.9 0.0
26/07:30pm 13.2 10.3 6.3 63 3.3 WSW 11 13 6 7 1029.4 1029.5 0.0
26/07:00pm 13.5 10.2 6.4 62 3.4 WSW 13 15 7 8 1029.1 1029.2 0.0
26/06:30pm 14.3 9.6 5.9 57 4.0 SW 20 26 11 14 1028.7 1028.8 0.0
26/06:00pm 14.8 9.3 5.9 55 4.3 SW 24 32 13 17 1028.5 1028.6 0.0
26/05:30pm 15.2 9.5 5.1 51 4.8 SSW 24 30 13 16 1028.1 1028.2 0.0
26/05:00pm 15.5 9.5 5.1 50 5.0 SSW 26 35 14 19 1027.7 1027.7 0.0
26/04:30pm 15.8 9.9 5.7 51 4.9 SSW 26 35 14 19 1027.4 1027.4 0.0
26/04:00pm 15.9 10.0 5.8 51 4.9 SSW 26 33 14 18 1027.1 1027.1 0.0
26/03:30pm 15.9 10.3 5.5 50 5.0 SSW 24 32 13 17 1027.0 1027.0 0.0
26/03:00pm 16.0 10.5 5.9 51 4.9 SSW 24 32 13 17 1027.0 1027.0 0.0
26/02:30pm 16.1 11.5 6.5 53 4.7 SSW 20 26 11 14 1026.9 1026.9 0.0

Other Formats:

Comma delimited format used in spreadsheet applications
http://www.bom.gov.au/fwo/IDS60801/IDS60801.95458.axf

JavaScript Object Notation format (JSON) in row-major order
http://www.bom.gov.au/fwo/IDS60801/IDS60801.95458.json